North Wales, PA (19455)

9:39 AM EDT on September 22, 2014 (GMT -0400)
Church Road | Change Station
CLOSE
Current Station
Personal Weather Station
Location: Lansdale, PA
Elevation: 410 ft
Nearby Weather Stations

Elev 410 ft 40.24 °N, 75.28 °W | Updated 4 minutes ago

Clear
Clear
64.9 °F
Feels Like 64.9 °F
N
2.0
Wind Variable Wind from NW
Gusts 4.0 mph

Today
High -- | Low -- °F
--% Chance of Precip.
Yesterday
High -- | Low -- °F
Precip. -- in
6:48 AM 6:58 PM
Waning Crescent, 3% visible
Pressure 29.90 in
Visibility 10.0 miles
Clouds Clear
Dew Point 53 °F
Humidity 66%
Rainfall 0.00 in
Snow Depth Not available.
UV 2 out of 12
Pollen 2.70 out of 12
Air Quality Not available.
Flu Activity Not available.
METAR KLOM 221315Z AUTO 29008G16KT 10SM CLR 19/10 A2990 RMK AO1

More Conditions Fewer Conditions

Pressure 29.90 in
Visibility 10.0 miles
Clouds Clear
Dew Point 53 °F
Humidity 66%
Rainfall 0.00 in
Snow Depth Not available.
UV 2 out of 12
Pollen 2.70 out of 12
Air Quality Not available.
Flu Activity Not available.
METAR KLOM 221315Z AUTO 29008G16KT 10SM CLR 19/10 A2990 RMK AO1

More Conditions Fewer Conditions

10-Day Weather Forecast

Almanac

Astronomy

Sep. 22, 2014 Rise Set
Actual Time 6:48 AM EDT 6:58 PM EDT
Civil Twilight 6:21 AM EDT 7:25 PM EDT
Nautical Twilight 5:49 AM EDT 7:57 PM EDT
Astronomical Twilight 5:17 AM EDT 8:29 PM EDT
Moon 5:14 AM EDT 6:04 PM EDT
Length of Visible Light 13h 03m
Length of Day
12h 09m
Tomorrow will be 2m 38s shorter.
Waning Crescent, 3% of the Moon is Illuminated
Today
Waning Crescent
Sep 24
New
Oct 1
First Quarter
Oct 8
Full
Oct 15
Last Quarter

Today's Extremes

State Highs State Lows

Community

WunderPhotos

Upload Photos

1,755,429 photos uploaded!

WunderBlogs® & News

Nearby

Snow Depth

Station Depth Elevation
No new snow has been reported.

Earthquake Activity

City Distance Mag. Time & Date
No recent earthquake activity has been reported nearby.
Minimum magnitude displayed is 2.5.

Coastal Water Temperatures

Place Temperature
No Stations Reporting

Nearby Weather Stations